Tiempo atmosférico en la estación meteorológica de Badajoz Aeropuerto, Badajoz (185 m.)

Fecha
DESCASC
Temp. máxima en grados centígrados (hora)
DESCASC
Temp. mínima en grados centígrados (hora)
DESCASC
Temp. media en grados centígrados
DESCASC
Racha de viento máxima en m/sg (hora)
DESCASC
Velocidad máxima media en intervalos de 10 minutos(hora)
DESCASC
Precipitaciones diarias en mm
DESCASC
Precipitaciones de 00:00 a 06:00 en mm
DESCASC
Precipitaciones de 06:00 a 12:00 en mm
DESCASC
Precipitaciones de 12:00 a 18:00 en mm
DESCASC
Precipitaciones de 18:00 a 24:00 en mm
DESCASC
17-08-2017 39.2 (18:50) 18.6 (08:10) 28.9 7.78 (22:00) 4.72 (23:50) 0 0 0 0 0
16-08-2017 37 (18:10) 16.4 (07:50) 26.7 8.33 (20:40) 4.72 (20:50) 0 0 0 0 0
15-08-2017 36.3 (17:50) 16.1 (00:00) 26.2 10.83 (18:00) 6.94 (18:00) 0 0 0 0 0
14-08-2017 37 (16:40) 20.2 (08:10) 28.6 8.06 (17:10) 5.28 (18:30) 0 0 0 0 0
13-08-2017 38.3 (18:30) 18.3 (00:00) 28.3 5.28 (19:10) 3.33 (18:50) 0 0 0 0 0
12-08-2017 37.2 (18:30) 15.6 (00:00) 26.4 6.67 (17:40) 3.61 (12:20) 0 0 0 0 0
11-08-2017 36 (17:20) 14.1 (00:00) 25.1 7.78 (16:00) 4.44 (12:10) 0 0 0 0 0
10-08-2017 33.5 (18:20) 16.9 (00:00) 25.2 8.89 (13:50) 6.11 (03:00) 0 0 0 0 0
09-08-2017 31.9 (17:30) 14.4 (00:00) 23.1 11.39 (17:50) 6.67 (17:50) 0 0 0 0 0
08-08-2017 32.5 (17:40) 14.3 (00:00) 23.4 10.28 (16:10) 6.39 (21:40) 0 0 0 0 0
07-08-2017 36.2 (16:50) 17.7 (00:00) 27 11.39 (20:20) 7.5 (19:40) 0 0 0 0 0
06-08-2017 37.5 (18:40) 16.3 (00:00) 26.9 8.33 (00:10) 5 (20:00) 0 0 0 0 0
05-08-2017 39.1 (17:40) 20.3 (00:00) 29.7 10.28 (15:40) 6.67 (19:00) 0 0 0 0 0
04-08-2017 41.8 (18:00) 21.5 (00:00) 31.6 8.89 (20:40) 5.56 (20:00) 0 0 0 0 0
03-08-2017 39 (19:10) 16.3 (00:00) 27.6 8.61 (21:10) 5.83 (22:20) 0 0 0 0 0
02-08-2017 35.4 (18:50) 14.8 (00:00) 25.1 8.61 (23:10) 5.28 (23:10) 0 0 0 0 0
01-08-2017 32.7 (18:40) 15.6 (00:00) 24.2 9.44 (22:40) 5.28 (22:40) 0 0 0 0 0
31-07-2017 33.1 (17:20) 15.1 (00:00) 24.1 13.89 (18:50) 9.72 (19:00) 0 0 0 0 0
30-07-2017 37.2 (17:10) 18.5 (00:00) 27.9 10 (18:00) 5.83 (19:30) 0 0 0 0 0
29-07-2017 38.6 (18:30) 19.8 (00:00) 29.2 10.83 (23:20) 6.67 (23:30) 0 0 0 0 0
28-07-2017 39.3 (17:40) 17.8 (00:00) 28.5 8.61 (16:40) 5.56 (19:40) 0 0 0 0 0
27-07-2017 38.4 (18:50) 20.4 (00:00) 29.4 8.61 (16:50) 6.11 (16:50) 0 0 0 0 0
26-07-2017 39 (19:50) 21.3 (00:00) 30.1 7.5 (22:50) 5 (22:50) 0 0 0 0 0
25-07-2017 38.1 (17:30) 17.8 (00:00) 27.9 8.61 (18:30) 5.28 (18:30) 0 0 0 0 0
24-07-2017 37 (17:40) 18.1 (00:00) 27.6 9.72 (14:30) 6.94 (19:20) 0 0 0 0 0
23-07-2017 36.3 (18:50) 16.1 (00:00) 26.2 8.89 (21:00) 5.83 (21:10) 0 0 0 0 0
22-07-2017 33.5 (18:30) 14.5 (00:00) 24 8.61 (23:00) 5.56 (23:00) 0 0 0 0 0

Gráficas

Temp. máximas Temp. mínimas Temp. medias Precipitaciones Rachas de viento máximas Velocidades máximas media en intervalos de 10 minutos

Datos horarios

Fecha y hora oficial Temperatura (ºC) Velocidad del viento (km/h) Dirección del viento Racha (km/h) Dirección de racha Precipitación (mm) Presión (hPa) Tendencia (hPa) Humedad (%)
2017-08-20 23:00:00 33 6 Sudoeste 11 Oeste 0 991.9 1.1 24
2017-08-20 22:00:00 34.1 4 Sudoeste 11 Noroeste 0 991.3 0 26
2017-08-20 21:00:00 37.4 7 Noroeste 14 Norte 0 991 -1 22
2017-08-20 20:00:00 39.9 12 Norte 19 Norte 0 990.8 -1.9 16
2017-08-20 19:00:00 40.6 10 Norte 20 Norte 0 991.3 -2.1 16
2017-08-20 18:00:00 41 12 Nordeste 19 Nordeste 0 992 -2 14
2017-08-20 17:00:00 40.3 8 Nordeste 18 Nordeste 0 992.7 -1.8 17
2017-08-20 16:00:00 39.4 8 Nordeste 15 Nordeste 0 993.4 -1.6 19
2017-08-20 15:00:00 38.5 8 Este 17 Nordeste 0 994 -1.2 21
2017-08-20 14:00:00 36.5 9 Este 19 Nordeste 0 994.5 -0.8 23
2017-08-20 13:00:00 34.1 11 Nordeste 17 Este 0 995 0 29
2017-08-20 12:00:00 31.4 8 Nordeste 14 Nordeste 0 995.2 0.7 33
2017-08-20 11:00:00 28.7 6 Este 10 Nordeste 0 995.3 1.5 38
2017-08-20 10:00:00 25.5 5 Nordeste 8 Nordeste 0 995 1.8 44
2017-08-20 09:00:00 21.3 3 Nordeste 5 Nordeste 0 994.5 1.4 61
2017-08-20 08:00:00 21.2 0 Calma 5 Sudeste 0 993.8 0.7 56
2017-08-20 07:00:00 23 0 Calma 9 Oeste 0 993.2 0 48
2017-08-20 06:00:00 25 6 Oeste 10 Oeste 0 993.1 -0.1 41
2017-08-20 05:00:00 25.3 6 Oeste 9 Oeste 0 993.1 -0.3 41
2017-08-20 04:00:00 25.9 6 Oeste 11 Oeste 0 993.2 -0.2 42
2017-08-20 03:00:00 26.2 8 Oeste 12 Sudoeste 0 993.2 0.1 44
2017-08-20 02:00:00 27 8 Oeste 13 Oeste 0 993.4 0.7 46
2017-08-20 01:00:00 27.6 7 Oeste 14 Oeste 0 993.4 1.2 45
2017-08-20 00:00:00 29.2 11 Oeste 19 Oeste 0 993.1 1.5 32
2017-08-19 23:00:00 31.6 5 Oeste 9 Noroeste 0 992.7 1.2 27
2017-08-19 22:00:00 33.3 4 Noroeste 8 Norte 0 992.2 0.6 27
2017-08-19 21:00:00 36.2 7 Noroeste 12 Noroeste 0 991.6 -0.3 21
2017-08-19 20:00:00 39.1 7 Oeste 14 Oeste 0 991.5 -0.8 16
2017-08-19 19:00:00 39.2 7 Oeste 17 Oeste 0 991.6 -1.3 16
2017-08-19 18:00:00 39.5 5 Sur 16 Noroeste 0 991.9 -1.4 18
2017-08-19 17:00:00 39.2 8 Oeste 18 Oeste 0 992.3 -1.4 19
2017-08-19 16:00:00 38.2 8 Noroeste 21 Noroeste 0 992.9 -1.2 20
2017-08-19 15:00:00 37.6 7 Nordeste 18 Noroeste 0 993.3 -1.3 20
2017-08-19 14:00:00 35.7 9 Noroeste 19 Noroeste 0 993.7 -0.7 26
2017-08-19 13:00:00 33.1 6 Noroeste 15 Noroeste 0 994.1 -0.4 33
2017-08-19 12:00:00 29.5 7 Noroeste 16 Noroeste 0 994.6 0 41
2017-08-19 11:00:00 27.1 5 Sudoeste 17 Noroeste 0 994.4 0.3 48
2017-08-19 10:00:00 23.6 11 Oeste 18 Oeste 0 994.5 0.9 60
2017-08-19 09:00:00 21.2 7 Oeste 12 Oeste 0 994.6 1 68
2017-08-19 08:00:00 19.4 3 Sudoeste 10 Oeste 0 994.1 0.3 73
2017-08-19 07:00:00 20.1 5 Sudoeste 11 Oeste 0 993.6 -0.3 71
2017-08-19 06:00:00 20.9 5 Sudoeste 14 Oeste 0 993.6 -0.3 68
2017-08-19 05:00:00 22.2 8 Oeste 18 Oeste 0 993.8 -0.2 63
2017-08-19 04:00:00 22.8 6 Oeste 19 Oeste 0 993.9 0 61
2017-08-19 03:00:00 23.6 10 Oeste 26 Noroeste 0 993.9 0.1 59
2017-08-19 02:00:00 24.9 10 Oeste 21 Oeste 0 994 0.6 56
2017-08-19 01:00:00 26 10 Oeste 19 Oeste 0 993.9 1.1 51
2017-08-19 00:00:00 26.8 13 Oeste 24 Oeste 0 993.8 1.6 47
2017-08-18 23:00:00 28.8 19 Oeste 28 Oeste 0 993.4 1.6 41
2017-08-18 22:00:00 30.7 13 Oeste 30 Noroeste 0 992.8 0.9 34
2017-08-18 21:00:00 33.7 15 Oeste 30 Noroeste 0 992.2 0.1 27
2017-08-18 20:00:00 38.5 10 Oeste 28 Oeste 0 991.8 -0.7 16
2017-08-18 19:00:00 39.2 13 Oeste 27 Noroeste 0 991.9 -1.5 17
2017-08-18 18:00:00 39.8 11 Oeste 22 Oeste 0 992.1 -1.9 16
2017-08-18 17:00:00 39.2 13 Oeste 27 Oeste 0 992.5 -2.1 17
2017-08-18 16:00:00 38.2 15 Oeste 28 Noroeste 0 993.4 -1.5 19
2017-08-18 15:00:00 36.9 13 Oeste 26 Oeste 0 994 -1.5 21
2017-08-18 14:00:00 34.7 9 Oeste 16 Oeste 0 994.6 -0.7 25
2017-08-18 13:00:00 31.7 8 Noroeste 19 Noroeste 0 994.9 -0.4 31
2017-08-18 12:00:00 29.8 12 Noroeste 19 Noroeste 0 995.5 0 35
2017-08-18 11:00:00 27.6 6 Oeste 12 Oeste 0 995.3 0.3 38
2017-08-18 10:00:00 22.8 6 Sudoeste 18 Noroeste 0 995.3 0.7 57
2017-08-18 09:00:00 20.2 12 Oeste 18 Noroeste 0 995.5 1.4 66
2017-08-18 08:00:00 19.1 8 Oeste 15 Oeste 0 995 1.1 69
2017-08-18 07:00:00 19.9 6 Oeste 9 Oeste 0 994.6 0.3 63
2017-08-18 06:00:00 20.5 7 Oeste 15 Oeste 0 994.1 -0.5 62
2017-08-18 05:00:00 21.5 4 Oeste 17 Oeste 0 993.9 -1.1 57
2017-08-18 04:00:00 22.4 9 Oeste 18 Oeste 0 994.3 -0.3 56
2017-08-18 03:00:00 23.5 9 Oeste 20 Noroeste 0 994.6 0.3 52
2017-08-18 02:00:00 25 9 Oeste 22 Oeste 0 995 1 48
2017-08-18 01:00:00 25.9 10 Oeste 24 Noroeste 0 994.6 1.5 48
2017-08-18 00:00:00 27.7 16 Oeste 26 Oeste 0 994.3 1.6 44
2017-08-17 23:00:00 30 16 Oeste 26 Oeste 0 994 1.2 39
2017-08-17 22:00:00 33.6 13 Oeste 28 Oeste 0 993.1 0.1 28
2017-08-17 21:00:00 36.8 5 Oeste 14 Oeste 0 992.7 -0.7 23
2017-08-17 20:00:00 38.5 8 Oeste 18 Oeste 0 992.8 -1.1 20
2017-08-17 19:00:00 38.8 9 Oeste 20 Noroeste 0 993 -1.5 19
2017-08-17 18:00:00 38.7 9 Noroeste 22 Noroeste 0 993.4 -1.8 20
2017-08-17 17:00:00 38.6 8 Oeste 21 Noroeste 0 993.9 -1.9 20
2017-08-17 16:00:00 37.9 8 Oeste 17 Oeste 0 994.5 -1.9 20
2017-08-17 15:00:00 36.3 7 Noroeste 15 Oeste 0 995.2 -1.5 23
2017-08-17 14:00:00 34 6 Noroeste 12 Este 0 995.8 -1.1 29
2017-08-17 13:00:00 31.4 5 Norte 12 Norte 0 996.4 -0.6 34
2017-08-17 12:00:00 28.9 5 Norte 11 Oeste 0 996.7 -0.2 40
2017-08-17 11:00:00 25.2 6 Oeste 14 Oeste 0 996.9 0.4 54
2017-08-17 10:00:00 21.8 8 Oeste 19 Oeste 0 997 0.9 66
2017-08-17 09:00:00 19.7 9 Oeste 14 Oeste 0 996.9 1 71
2017-08-17 08:00:00 18.8 7 Oeste 14 Oeste 0 996.5 0.7 72
2017-08-17 07:00:00 19.1 8 Oeste 16 Oeste 0 996.1 0.2 67
2017-08-17 06:00:00 19.6 11 Oeste 16 Oeste 0 995.9 -0.1 64
2017-08-17 05:00:00 20.6 7 Oeste 16 Noroeste 0 995.8 -0.1 59
2017-08-17 04:00:00 21.6 9 Oeste 17 Oeste 0 995.9 -0.2 57
2017-08-17 03:00:00 22.8 10 Oeste 17 Oeste 0 996 -0.3 53
2017-08-17 02:00:00 23.7 9 Oeste 16 Oeste 0 995.9 -0.3 50
2017-08-17 01:00:00 24.6 8 Oeste 23 Oeste 0 996.1 0.3 47
2017-08-17 00:00:00 25.9 10 Oeste 21 Oeste 0 996.3 0.9 44
2017-08-16 23:00:00 27.3 15 Oeste 23 Oeste 0 996.2 1.3 38
2017-08-16 22:00:00 29.3 10 Oeste 27 Oeste 0 995.8 0.6 31
2017-08-16 21:00:00 32.5 15 Oeste 30 Noroeste 0 995.4 0 24
2017-08-16 20:00:00 36.5 7 Oeste 18 Oeste 0 994.9 -1 15
2017-08-16 19:00:00 37 10 Oeste 20 Oeste 0 995.2 -1.3 15
2017-08-16 18:00:00 36.8 7 Oeste 19 Oeste 0 995.4 -1.8 15
2017-08-16 17:00:00 36.3 8 Sudoeste 18 Oeste 0 995.9 -1.9 15
2017-08-16 16:00:00 34.7 7 Oeste 22 Noroeste 0 996.5 -1.7 17
2017-08-16 15:00:00 33 10 Oeste 21 Noroeste 0 997.2 -1.4 22
2017-08-16 14:00:00 31 10 Noroeste 15 Noroeste 0 997.8 -0.9 25
2017-08-16 13:00:00 29.2 5 Sudoeste 12 Noroeste 0 998.2 -0.5 31
2017-08-16 12:00:00 26.4 4 Norte 9 Noroeste 0 998.6 0.3 36
2017-08-16 11:00:00 23.4 4 Oeste 15 Oeste 0 998.7 0.5 45
2017-08-16 10:00:00 20.5 11 Oeste 17 Oeste 0 998.7 1 55
2017-08-16 09:00:00 18.1 4 Sudoeste 11 Sudoeste 0 998.3 0.9 63
2017-08-16 08:00:00 16.4 5 Oeste 9 Oeste 0 998.2 0.8 68
2017-08-16 07:00:00 17.1 4 Sudoeste 12 Oeste 0 997.7 0.3 67
2017-08-16 06:00:00 17.7 8 Oeste 19 Oeste 0 997.4 -0.1 65
2017-08-16 05:00:00 18.4 12 Oeste 19 Oeste 0 997.4 -0.3 63
2017-08-16 04:00:00 19.2 6 Oeste 22 Oeste 0 997.4 -0.1 61
2017-08-16 03:00:00 21.1 9 Oeste 18 Oeste 0 997.5 0.2 56
2017-08-16 02:00:00 21.9 12 Oeste 30 Oeste 0 997.7 0.8 53
2017-08-16 01:00:00 24 12 Oeste 21 Oeste 0 997.5 1.5 45
2017-08-16 00:00:00 25.5 10 Oeste 22 Oeste 0 997.3 1.9 42
2017-08-15 23:00:00 27.3 10 Oeste 19 Oeste 0 996.9 2 37
2017-08-15 22:00:00 29 10 Oeste 25 Noroeste 0 996 1.4 26
2017-08-15 21:00:00 30.5 15 Oeste 32 Oeste 0 995.4 0.8 20
2017-08-15 20:00:00 33.4 21 Oeste 35 Noroeste 0 994.9 0.1 19
2017-08-15 19:00:00 35 22 Oeste 36 Oeste 0 994.6 -0.5 17
2017-08-15 18:00:00 35.6 25 Oeste 39 Noroeste 0 994.6 -1 18
2017-08-15 17:00:00 36.1 15 Oeste 32 Noroeste 0 994.8 -1.2 19
2017-08-15 16:00:00 35.2 16 Oeste 29 Noroeste 0 995.1 -1.2 17
2017-08-15 15:00:00 33.6 15 Noroeste 24 Noroeste 0 995.6 -0.7 23
2017-08-15 14:00:00 30.8 14 Oeste 22 Noroeste 0 996 -0.3 34
2017-08-15 13:00:00 28.1 11 Oeste 21 Noroeste 0 996.3 0.1 40
2017-08-15 12:00:00 25.6 9 Noroeste 16 Noroeste 0 996.3 0.5 50
2017-08-15 11:00:00 22.3 6 Oeste 19 Oeste 0 996.3 1.1 61
2017-08-15 10:00:00 19.9 8 Noroeste 13 Noroeste 0 996.2 1.7 71
2017-08-15 09:00:00 17.6 6 Oeste 12 Noroeste 0 995.8 1.5 81
2017-08-15 08:00:00 16.3 10 Noroeste 12 Noroeste 0 995.2 1.2 85
2017-08-15 07:00:00 17.2 6 Oeste 13 Oeste 0 994.5 0.8 81
2017-08-15 06:00:00 18.3 6 Oeste 14 Oeste 0 994.3 1 77
2017-08-15 05:00:00 19 7 Oeste 15 Oeste 0 994 0.9 73
2017-08-15 04:00:00 20.6 10 Oeste 18 Oeste 0 993.7 0.7 65
2017-08-15 03:00:00 22.3 8 Oeste 19 Oeste 0 993.3 0.5 58
2017-08-15 02:00:00 24.3 10 Oeste 18 Oeste 0 993.1 0.8 49
2017-08-15 01:00:00 25.2 9 Oeste 19 Noroeste 0 993 2 45
2017-08-15 00:00:00 26.5 11 Oeste 21 Oeste 0 992.8 2.6 39
2017-08-14 23:00:00 28.3 11 Oeste 24 Oeste 0 992.3 2.3 34
2017-08-14 22:00:00 30.3 12 Oeste 22 Oeste 0 991 1 31
2017-08-14 21:00:00 33.3 10 Oeste 21 Oeste 0 990.2 0.1 23
2017-08-14 20:00:00 35.9 14 Oeste 24 Noroeste 0 990 -0.4 19
2017-08-14 19:00:00 36.6 14 Oeste 26 Noroeste 0 990 -0.9 19
2017-08-14 18:00:00 36.6 15 Noroeste 29 Noroeste 0 990.1 -1.3 20
2017-08-14 17:00:00 36.8 14 Oeste 26 Noroeste 0 990.4 -1.6 20
2017-08-14 16:00:00 36.3 15 Oeste 26 Noroeste 0 990.9 -1.6 23
2017-08-14 15:00:00 34.7 13 Noroeste 22 Noroeste 0 991.4 -1.4 26
2017-08-14 14:00:00 33.2 6 Norte 17 Nordeste 0 992 -0.7 28
2017-08-14 13:00:00 30.8 7 Norte 17 Nordeste 0 992.5 -0.1 32
2017-08-14 12:00:00 28.6 4 Noroeste 12 Nordeste 0 992.8 0.4 36
2017-08-14 11:00:00 26 5 Nordeste 10 Nordeste 0 992.7 0.8 41
2017-08-14 10:00:00 24 3 Este 9 Este 0 992.6 1.4 44
2017-08-14 09:00:00 21.2 3 Este 8 Este 0 992.4 1.2 55
2017-08-14 08:00:00 20.3 4 Este 6 Este 0 991.9 1.2 51
2017-08-14 07:00:00 21.4 4 Oeste 9 Oeste 0 991.2 0.7 46
2017-08-14 06:00:00 21.7 3 Oeste 11 Sudoeste 0 991.2 0.4 44
2017-08-14 05:00:00 23.3 5 Oeste 14 Oeste 0 990.7 -0.5 41
2017-08-14 04:00:00 23.5 7 Oeste 15 Oeste 0 990.5 -0.7 40
2017-08-14 03:00:00 25.5 7 Oeste 14 Sudoeste 0 990.8 0 35
2017-08-14 02:00:00 26.7 7 Oeste 15 Sur 0 991.2 0.9 33
2017-08-14 01:00:00 28 9 Sur 18 Sudoeste 0 991.2 1.3 31
2017-08-14 00:00:00 29.3 8 Oeste 19 Noroeste 0 990.8 1.1 29
2017-08-13 23:00:00 30.1 4 Sudeste 5 Sudeste 0 990.3 0.6 23
2017-08-13 22:00:00 31.8 2 Sudoeste 5 Sudoeste 0 989.9 -0.1 25
2017-08-13 21:00:00 35.9 4 Oeste 10 Noroeste 0 989.7 -0.7 17
2017-08-13 20:00:00 37.1 7 Norte 19 Oeste 0 989.7 -1.1 15
2017-08-13 19:00:00 37.6 11 Noroeste 19 Noroeste 0 990 -1.6 14
2017-08-13 18:00:00 37.9 7 Norte 17 Norte 0 990.4 -1.8 13
2017-08-13 17:00:00 37.7 9 Norte 18 Norte 0 990.8 -2.1 15
2017-08-13 16:00:00 36.7 7 Norte 19 Noroeste 0 991.6 -1.9 18
2017-08-13 15:00:00 35.1 9 Nordeste 18 Norte 0 992.2 -1.7 23
2017-08-13 14:00:00 33.6 9 Nordeste 17 Nordeste 0 992.9 -1.3 24
2017-08-13 13:00:00 31.5 5 Nordeste 12 Este 0 993.5 -0.6 27
2017-08-13 12:00:00 29.1 6 Nordeste 11 Nordeste 0 993.9 0.1 30
2017-08-13 11:00:00 26.5 6 Nordeste 10 Nordeste 0 994.2 0.7 33
2017-08-13 10:00:00 23.2 6 Nordeste 9 Este 0 994.1 1.1 42
2017-08-13 09:00:00 20 3 Nordeste 5 Nordeste 0 993.8 1.1 47
2017-08-13 08:00:00 18.5 3 Nordeste 10 Sur 0 993.5 0.8 44
2017-08-13 07:00:00 19.2 5 Sur 8 Sur 0 993 -0.1 41
2017-08-13 06:00:00 20.2 0 Calma 8 Sudoeste 0 992.7 -0.6 39
2017-08-13 05:00:00 21.4 4 Oeste 8 Oeste 0 992.7 -1 37
2017-08-13 04:00:00 21.6 3 Sudeste 5 Sudeste 0 993.1 -0.6 36
2017-08-13 03:00:00 23.1 4 Noroeste 14 Noroeste 0 993.3 -0.2 34
2017-08-13 02:00:00 26.4 4 Sudoeste 16 Sudoeste 0 993.7 0.2 25
2017-08-13 01:00:00 26.5 5 Sudeste 10 Sur 0 993.7 0.6 28
2017-08-13 00:00:00 26.4 5 Sudeste 8 Sudeste 0 993.5 0.4 34
2017-08-12 23:00:00 27.5 6 Norte 17 Norte 0 993.5 0.4 34
2017-08-12 22:00:00 31.3 4 Sudoeste 5 Oeste 0 993.1 -0.3 27
2017-08-12 21:00:00 34.5 4 Este 10 Este 0 993.1 -0.8 22
2017-08-12 20:00:00 36.5 3 Norte 12 Norte 0 993.1 -1.2 17
2017-08-12 19:00:00 36.7 4 Sudeste 15 Norte 0 993.4 -1.6 15
2017-08-12 18:00:00 36.8 10 Norte 24 Norte 0 993.9 -1.6 15
2017-08-12 17:00:00 36.3 9 Norte 20 Norte 0 994.3 -1.9 16
2017-08-12 16:00:00 36.2 10 Norte 20 Norte 0 995 -1.6 18
2017-08-12 15:00:00 34.9 8 Nordeste 17 Este 0 995.5 -1.4 22
2017-08-12 14:00:00 33.9 8 Nordeste 22 Nordeste 0 996.2 -0.7 26
2017-08-12 13:00:00 32.5 10 Este 20 Este 0 996.6 -0.4 24
2017-08-12 12:00:00 29.9 9 Este 20 Este 0 996.9 0.3 24
2017-08-12 11:00:00 26.1 10 Nordeste 17 Este 0 996.9 0.8 29
2017-08-12 10:00:00 22.7 9 Este 13 Este 0 997 1.3 33
2017-08-12 09:00:00 18.3 3 Nordeste 5 Nordeste 0 996.6 1.1 49
2017-08-12 08:00:00 15.6 2 Sudeste 4 Nordeste 0 996.1 0.5 49
2017-08-12 07:00:00 16.2 4 Sudeste 5 Sudeste 0 995.7 0 45
2017-08-12 06:00:00 17.6 0 Calma 4 Oeste 0 995.5 -0.3 41
2017-08-12 05:00:00 18.6 3 Oeste 7 Oeste 0 995.6 -0.2 39
2017-08-12 04:00:00 19.6 4 Oeste 6 Oeste 0 995.7 -0.1 34
2017-08-12 03:00:00 20.7 2 Sur 5 Noroeste 0 995.8 0.3 29
2017-08-12 02:00:00 22.6 4 Noroeste 7 Noroeste 0 995.8 0.3 24
2017-08-12 01:00:00 23.1 2 Noroeste 4 Sur 0 995.8 0.7 26
2017-08-12 00:00:00 24.6 0 Calma -- -- 0 995.5 0.8 26
2017-08-11 23:00:00 26.2 3 Noroeste 8 Oeste 0 995.5 0.8 26
2017-08-11 22:00:00 28.4 5 Norte 11 Norte 0 995.1 0.4 19
2017-08-11 21:00:00 32.3 6 Norte 13 Norte 0 994.7 -0.4 17
2017-08-11 20:00:00 34.6 11 Nordeste 21 Norte 0 994.7 -1 12
2017-08-11 19:00:00 35.2 12 Norte 19 Noroeste 0 994.7 -1.7 13
2017-08-11 18:00:00 35.9 10 Este 25 Este 0 995.1 -1.9 13
2017-08-11 17:00:00 35.6 10 Este 22 Este 0 995.7 -1.7 13
2017-08-11 16:00:00 34.9 10 Este 28 Este 0 996.4 -1.5 13
2017-08-11 15:00:00 34.3 12 Este 26 Este 0 997 -1.3 14
2017-08-11 14:00:00 33.1 10 Este 21 Este 0 997.4 -0.8 16
2017-08-11 13:00:00 31.4 14 Nordeste 25 Nordeste 0 997.9 -0.2 20
2017-08-11 12:00:00 28.9 15 Nordeste 23 Este 0 998.3 0.3 22
2017-08-11 11:00:00 25 9 Este 16 Este 0 998.2 0.3 32
2017-08-11 10:00:00 21.1 6 Este 10 Este 0 998.1 0.6 33
2017-08-11 09:00:00 18.2 3 Este 7 Este 0 998 0.5 39
2017-08-11 08:00:00 14.1 5 Sudeste 6 Sudeste 0 997.9 0.3 44
2017-08-11 07:00:00 15 0 Calma 3 Norte 0 997.5 -0.1 46
2017-08-11 06:00:00 15.6 0 Calma 5 Oeste 0 997.5 -0.2 44
2017-08-11 05:00:00 15.9 2 Oeste 4 Noroeste 0 997.6 -0.4 44
2017-08-11 04:00:00 16.8 3 Oeste 5 Oeste 0 997.6 -0.2 36
2017-08-11 03:00:00 19.2 2 Sudoeste 4 Sudoeste 0 997.7 0 26
2017-08-11 02:00:00 20.1 2 Oeste 8 Noroeste 0 998 0.5 29
2017-08-11 01:00:00 21.5 4 Oeste 5 Oeste 0 997.8 1.1 26
2017-08-11 00:00:00 22.5 0 Calma 14 Norte 0 997.7 1.2 24
2017-08-10 23:00:00 23.3 13 Norte 18 Norte 0 997.5 1.1 20
2017-08-10 22:00:00 25.7 11 Norte 17 Nordeste 0 996.7 0.1 20
2017-08-10 21:00:00 30.6 8 Norte 11 Norte 0 996.5 -0.4 16
2017-08-10 20:00:00 32.8 3 Sudeste 13 Este 0 996.4 -1 14
2017-08-10 19:00:00 32.7 7 Nordeste 18 Norte 0 996.6 -1.6 13
2017-08-10 18:00:00 33.3 5 Sudeste 22 Este 0 996.9 -2.1 14
2017-08-10 17:00:00 32.4 9 Este 26 Este 0 997.4 -2 15
2017-08-10 16:00:00 31.8 12 Nordeste 24 Este 0 998.2 -1.4 15
2017-08-10 15:00:00 30 6 Nordeste 24 Nordeste 0 999 -0.9 20
2017-08-10 14:00:00 28.9 11 Norte 32 Nordeste 0 999.4 -0.4 21
2017-08-10 13:00:00 27.7 14 Nordeste 26 Nordeste 0 999.6 0.1 23
2017-08-10 12:00:00 25.9 17 Nordeste 30 Nordeste 0 999.9 0.7 25
2017-08-10 11:00:00 24.4 19 Nordeste 30 Nordeste 0 999.8 1.4 28
2017-08-10 10:00:00 22.4 18 Norte 25 Norte 0 999.5 2 33
2017-08-10 09:00:00 19.3 15 Norte 20 Norte 0 999.2 2.4 41
2017-08-10 08:00:00 17 13 Norte 18 Norte 0 998.4 2.1 45
2017-08-10 07:00:00 17.5 12 Norte 17 Norte 0 997.5 1.4 43
2017-08-10 06:00:00 18.3 13 Norte 23 Norte 0 996.8 0.7 41
2017-08-10 05:00:00 19.5 15 Norte 21 Norte 0 996.3 0.4 37
2017-08-10 04:00:00 20.1 14 Norte 28 Norte 0 996.1 0.4 35
2017-08-10 03:00:00 21.8 22 Norte 31 Noroeste 0 996.1 1 28
2017-08-10 02:00:00 22.3 19 Noroeste 25 Norte 0 995.9 1.4 26
2017-08-10 01:00:00 22 11 Noroeste 16 Norte 0 995.7 2.1 27
2017-08-10 00:00:00 23.8 13 Norte 26 Norte 0 995.1 2.3 25
2017-08-09 23:00:00 25.2 17 Norte 27 Norte 0 994.5 2.3 23
2017-08-09 22:00:00 26.4 15 Norte 32 Norte 0 993.6 1.3 22
2017-08-09 21:00:00 28.9 19 Norte 30 Noroeste 0 992.8 0 19
2017-08-09 20:00:00 31 19 Noroeste 34 Noroeste 0 992.2 -1 19
2017-08-09 19:00:00 31.5 21 Noroeste 37 Noroeste 0 992.3 -1.5 19
2017-08-09 18:00:00 31.5 20 Noroeste 41 Noroeste 0 992.8 -1.4 17
2017-08-09 17:00:00 31.5 21 Noroeste 32 Noroeste 0 993.2 -1.3 17
2017-08-09 16:00:00 30.9 14 Oeste 28 Noroeste 0 993.8 -1.1 17
2017-08-09 15:00:00 30 18 Noroeste 31 Noroeste 0 994.2 -1 19
2017-08-09 14:00:00 28.3 13 Oeste 23 Noroeste 0 994.5 -0.8 28
2017-08-09 13:00:00 26.6 9 Oeste 21 Oeste 0 994.9 -0.3 34
2017-08-09 12:00:00 23.4 12 Noroeste 23 Noroeste 0 995.2 0.2 42
2017-08-09 11:00:00 21 12 Oeste 23 Noroeste 0 995.3 0.4 49
2017-08-09 10:00:00 18.3 13 Oeste 19 Oeste 0 995.2 0.7 57
2017-08-09 09:00:00 16.5 10 Oeste 21 Oeste 0 995 0.5 64
2017-08-09 08:00:00 14.7 11 Oeste 24 Oeste 0 994.9 0.6 70
2017-08-09 07:00:00 14.7 8 Oeste 14 Oeste 0 994.5 0.1 66
2017-08-09 06:00:00 15.4 5 Oeste 14 Oeste 0 994.5 -0.2 63
2017-08-09 05:00:00 16.3 7 Oeste 21 Oeste 0 994.3 -0.5 60
2017-08-09 04:00:00 16.9 11 Oeste 26 Oeste 0 994.4 -0.1 58
2017-08-09 03:00:00 18 12 Oeste 24 Oeste 0 994.7 0.3 55
2017-08-09 02:00:00 18.9 12 Oeste 23 Oeste 0 994.8 0.6 55
2017-08-09 01:00:00 19.7 12 Oeste 29 Oeste 0 994.5 0.8 54
2017-08-09 00:00:00 20.9 15 Oeste 31 Oeste 0 994.4 1.3 51
2017-08-08 23:00:00 22.9 22 Oeste 32 Noroeste 0 994.2 1.4 44
2017-08-08 22:00:00 25.4 21 Oeste 36 Noroeste 0 993.7 0.6 39
2017-08-08 21:00:00 29.6 13 Noroeste 23 Noroeste 0 993.1 -0.2 18
2017-08-08 20:00:00 31.4 15 Noroeste 27 Noroeste 0 992.8 -0.8 14
2017-08-08 19:00:00 32.1 16 Noroeste 35 Noroeste 0 993.1 -0.9 13
2017-08-08 18:00:00 32 17 Noroeste 33 Noroeste 0 993.3 -1.1 12
2017-08-08 17:00:00 31.9 17 Noroeste 37 Noroeste 0 993.6 -1.5 11
2017-08-08 16:00:00 31.6 12 Noroeste 31 Noroeste 0 994 -1.4 12
2017-08-08 15:00:00 30.3 17 Noroeste 32 Noroeste 0 994.4 -1 15
2017-08-08 14:00:00 28.7 15 Oeste 31 Noroeste 0 995.1 -0.2 20
2017-08-08 13:00:00 27.2 17 Noroeste 30 Noroeste 0 995.4 0.1 27
2017-08-08 12:00:00 25 15 Oeste 24 Noroeste 0 995.4 0.2 38
2017-08-08 11:00:00 21.9 9 Oeste 19 Oeste 0 995.3 0.6 55
2017-08-08 10:00:00 18.8 9 Oeste 18 Oeste 0 995.3 0.9 66
2017-08-08 09:00:00 16.5 9 Oeste 17 Oeste 0 995.2 0.9 75
2017-08-08 08:00:00 14.5 8 Oeste 19 Oeste 0 994.7 0.4 83
2017-08-08 07:00:00 14.8 9 Oeste 23 Oeste 0 994.4 0 81
2017-08-08 06:00:00 15.6 10 Oeste 21 Sudoeste 0 994.3 -0.1 78
2017-08-08 05:00:00 16.4 9 Oeste 23 Oeste 0 994.3 -0.1 75
2017-08-08 04:00:00 17.2 10 Oeste 24 Oeste 0 994.4 0 71
2017-08-08 03:00:00 17.8 10 Oeste 23 Oeste 0 994.4 0.3 70
2017-08-08 02:00:00 18.7 13 Oeste 27 Oeste 0 994.4 0.7 66
2017-08-08 01:00:00 19.5 15 Oeste 26 Noroeste 0 994.4 1.6 61
2017-08-08 00:00:00 21 17 Oeste 33 Noroeste 0 994.1 2.3 53
2017-08-07 23:00:00 23.3 19 Oeste 32 Noroeste 0 993.7 2.5 44
2017-08-07 22:00:00 25.8 19 Oeste 39 Oeste 0 992.8 1.8 30
2017-08-07 21:00:00 28.6 18 Oeste 41 Noroeste 0 991.8 0.5 27
2017-08-07 20:00:00 30.8 23 Noroeste 39 Noroeste 0 991.2 -0.2 22
2017-08-07 19:00:00 34.1 18 Oeste 36 Oeste 0 991 -0.8 16
2017-08-07 18:00:00 35.3 21 Oeste 37 Oeste 0 991.3 -1 14
2017-08-07 17:00:00 36.1 14 Oeste 32 Oeste 0 991.4 -1.4 14
2017-08-07 16:00:00 35.8 13 Oeste 30 Noroeste 0 991.8 -1.2 14
2017-08-07 15:00:00 34 14 Oeste 28 Oeste 0 992.3 -0.9 14
2017-08-07 14:00:00 32.7 9 Oeste 24 Oeste 0 992.8 -0.7 18
2017-08-07 13:00:00 29.7 10 Oeste 21 Noroeste 0 993 -0.3 27
2017-08-07 12:00:00 26.1 10 Oeste 22 Oeste 0 993.2 0 36
2017-08-07 11:00:00 23.8 11 Oeste 18 Oeste 0 993.5 0.2 46
2017-08-07 10:00:00 20.6 9 Oeste 20 Noroeste 0 993.3 0 62
2017-08-07 09:00:00 19.2 12 Oeste 18 Noroeste 0 993.2 0.4 63
2017-08-07 08:00:00 18.7 5 Sudoeste 13 Sudoeste 0 993.3 0.6 56
2017-08-07 07:00:00 18.5 4 Sudoeste 9 Sudoeste 0 993.3 0.4 60
2017-08-07 06:00:00 19.7 6 Oeste 12 Oeste 0 992.8 0 56
2017-08-07 05:00:00 20.6 3 Sudoeste 7 Noroeste 0 992.7 -0.1 53
2017-08-07 04:00:00 21.6 4 Oeste 12 Oeste 0 992.9 0.1 51
2017-08-07 03:00:00 23.4 7 Oeste 16 Oeste 0 992.8 0.3 49
2017-08-07 02:00:00 24.2 9 Oeste 18 Oeste 0 992.8 1 48
2017-08-07 01:00:00 26.2 9 Oeste 21 Oeste 0 992.8 1.4 41
2017-08-07 00:00:00 27.9 11 Oeste 23 Noroeste 0 992.5 1.4 37
2017-08-06 23:00:00 30 6 Oeste 12 Oeste 0 991.8 0.8 24
2017-08-06 22:00:00 31.4 6 Oeste 14 Noroeste 0 991.4 0.3 21
2017-08-06 21:00:00 33.8 10 Oeste 23 Oeste 0 991.1 -0.2 18
2017-08-06 20:00:00 36.2 18 Oeste 25 Oeste 0 991 -0.8 15
2017-08-06 19:00:00 37 14 Noroeste 27 Oeste 0 991.1 -1.3 16
2017-08-06 18:00:00 37 14 Oeste 26 Noroeste 0 991.3 -1.5 20
2017-08-06 17:00:00 36.2 13 Noroeste 26 Noroeste 0 991.8 -1.5 24
2017-08-06 16:00:00 35.3 14 Noroeste 22 Noroeste 0 992.4 -1.3 24
2017-08-06 15:00:00 33 8 Oeste 21 Noroeste 0 992.8 -1.3 32
2017-08-06 14:00:00 31.9 10 Oeste 15 Oeste 0 993.3 -0.6 35
2017-08-06 13:00:00 29.4 3 Oeste 11 Noroeste 0 993.7 -0.2 40
2017-08-06 12:00:00 27.1 4 Sudeste 8 Sur 0 994.1 0.2 45
2017-08-06 11:00:00 23.2 4 Noroeste 10 Oeste 0 993.9 0.3 57
2017-08-06 10:00:00 20.7 6 Oeste 12 Noroeste 0 993.9 0.6 66
2017-08-06 09:00:00 18.4 7 Noroeste 12 Oeste 0 993.9 1.1 76
2017-08-06 08:00:00 16.6 4 Oeste 11 Oeste 0 993.6 0.8 81
2017-08-06 07:00:00 17.1 7 Oeste 11 Oeste 0 993.3 0.5 75
2017-08-06 06:00:00 17.9 4 Sudoeste 13 Oeste 0 992.8 -0.3 69
2017-08-06 05:00:00 18.8 4 Sudoeste 12 Oeste 0 992.8 -0.7 63
2017-08-06 04:00:00 19.4 5 Oeste 15 Noroeste 0 992.8 -0.7 62
2017-08-06 03:00:00 21.3 8 Oeste 21 Oeste 0 993.1 -0.2 56
2017-08-06 02:00:00 22 11 Oeste 22 Oeste 0 993.5 0.7 52
2017-08-06 01:00:00 24 11 Oeste 30 Oeste 0 993.5 1.7 46
2017-08-06 00:00:00 25.9 13 Oeste 28 Sudoeste 0 993.3 1.8 44
2017-08-05 23:00:00 27.9 13 Oeste 28 Noroeste 0 992.8 1.8 39
2017-08-05 22:00:00 30.1 13 Oeste 31 Oeste 0 991.8 0.8 29
2017-08-05 21:00:00 33.5 18 Oeste 32 Oeste 0 991.5 0.5 23
2017-08-05 20:00:00 35.8 22 Oeste 35 Noroeste 0 991 -0.3 18
2017-08-05 19:00:00 37.5 24 Oeste 36 Noroeste 0 991 -0.8 18
2017-08-05 18:00:00 38.7 17 Oeste 37 Noroeste 0 991 -1.5 20
2017-08-05 17:00:00 38.5 18 Oeste 36 Noroeste 0 991.3 -1.8 19
2017-08-05 16:00:00 38.1 21 Noroeste 37 Noroeste 0 991.8 -1.8 22
2017-08-05 15:00:00 37.2 14 Oeste 27 Noroeste 0 992.5 -1.4 25
2017-08-05 14:00:00 34.9 10 Oeste 24 Oeste 0 993.1 -1 30
2017-08-05 13:00:00 32.5 11 Oeste 24 Oeste 0 993.6 -0.4 38
2017-08-05 12:00:00 29.6 12 Oeste 24 Oeste 0 993.9 0.2 49
2017-08-05 11:00:00 26.8 11 Oeste 23 Noroeste 0 994.1 0.9 60
2017-08-05 10:00:00 24.2 12 Oeste 24 Noroeste 0 994 1 69
2017-08-05 09:00:00 22 15 Oeste 25 Oeste 0 993.7 0.7 78
2017-08-05 08:00:00 20.4 12 Oeste 21 Oeste 0 993.2 0.2 86
2017-08-05 07:00:00 20.9 10 Oeste 20 Oeste 0 993 0 81
2017-08-05 06:00:00 21.6 10 Oeste 23 Oeste 0 993 -0.2 76
2017-08-05 05:00:00 22.2 12 Oeste 24 Oeste 0 993 -0.1 73
2017-08-05 04:00:00 23.9 11 Oeste 20 Oeste 0 993 0 65
2017-08-05 03:00:00 24.9 9 Oeste 23 Oeste 0 993.2 0.1 61
2017-08-05 02:00:00 26.6 12 Oeste 22 Oeste 0 993.1 0.4 54
2017-08-05 01:00:00 27.6 12 Oeste 22 Oeste 0 993 1.2 50
2017-08-05 00:00:00 29.2 15 Oeste 27 Noroeste 0 993.1 1.9 41
2017-08-04 23:00:00 31.3 15 Oeste 27 Noroeste 0 992.7 1.8 36
2017-08-04 22:00:00 33.5 13 Oeste 24 Noroeste 0 991.8 0.8 33
2017-08-04 21:00:00 37 15 Oeste 32 Oeste 0 991.2 0 28
2017-08-04 20:00:00 39.4 20 Oeste 31 Noroeste 0 990.9 -0.9 25
2017-08-04 19:00:00 41.5 10 Oeste 20 Oeste 0 991 -1.5 19
2017-08-04 18:00:00 41.7 10 Oeste 21 Oeste 0 991.2 -2.1 20
2017-08-04 17:00:00 40.8 10 Noroeste 25 Noroeste 0 991.8 -2.3 20
2017-08-04 16:00:00 39.9 9 Oeste 21 Oeste 0 992.5 -2.5 24
2017-08-04 15:00:00 38.3 9 Oeste 21 Oeste 0 993.3 -2 27
2017-08-04 14:00:00 36.5 7 Oeste 18 Oeste 0 994.1 -1.3 30
2017-08-04 13:00:00 33.4 6 Noroeste 15 Noroeste 0 995 -0.4 36
2017-08-04 12:00:00 31.3 7 Norte 13 Noroeste 0 995.3 0.2 38
2017-08-04 11:00:00 29.2 6 Oeste 11 Noroeste 0 995.4 0.5 44
2017-08-04 10:00:00 26.1 8 Noroeste 16 Noroeste 0 995.4 0.5 52
2017-08-04 09:00:00 24.2 8 Oeste 13 Oeste 0 995.1 0.4 54
2017-08-04 08:00:00 21.6 6 Sudoeste 12 Sudoeste 0 994.9 0.1 62
2017-08-04 07:00:00 21.8 4 Sudoeste 10 Oeste 0 994.9 0.2 62
2017-08-04 06:00:00 22.6 5 Oeste 14 Oeste 0 994.7 -0.2 59
2017-08-04 05:00:00 23.6 9 Oeste 17 Sudoeste 0 994.8 -0.2 57
2017-08-04 04:00:00 24.6 7 Oeste 17 Sudoeste 0 994.7 -0.3 54
2017-08-04 03:00:00 25.5 8 Oeste 18 Sudoeste 0 994.9 -0.1 51
2017-08-04 02:00:00 26 8 Oeste 19 Oeste 0 995 0.4 52
2017-08-04 01:00:00 27.6 10 Oeste 19 Oeste 0 995 1 49
2017-08-04 00:00:00 29 12 Oeste 22 Oeste 0 995 1.7 47
2017-08-03 23:00:00 30.6 15 Oeste 31 Noroeste 0 994.6 1.5 42
2017-08-03 22:00:00 32.6 17 Oeste 31 Noroeste 0 994 0.6 37
2017-08-03 21:00:00 37 8 Oeste 15 Oeste 0 993.3 -0.7 26
2017-08-03 20:00:00 38.7 7 Oeste 23 Oeste 0 993.1 -1.4 19
2017-08-03 19:00:00 38.8 9 Oeste 20 Noroeste 0 993.4 -1.9 18
2017-08-03 18:00:00 38.7 9 Oeste 22 Oeste 0 994 -1.9 18
2017-08-03 17:00:00 37.8 9 Oeste 23 Noroeste 0 994.5 -2.1 20
2017-08-03 16:00:00 36.5 9 Oeste 19 Noroeste 0 995.3 -2 21
2017-08-03 15:00:00 34.8 8 Sudoeste 17 Oeste 0 995.9 -1.7 21
2017-08-03 14:00:00 32.7 7 Noroeste 14 Sudoeste 0 996.6 -0.9 26
2017-08-03 13:00:00 29.8 7 Oeste 15 Noroeste 0 997.3 -0.5 33
2017-08-03 12:00:00 27.2 5 Oeste 12 Noroeste 0 997.6 0 41
2017-08-03 11:00:00 23.8 4 Oeste 14 Oeste 0 997.5 0.4 53
2017-08-03 10:00:00 20.8 9 Noroeste 17 Oeste 0 997.8 0.9 70
2017-08-03 09:00:00 18.8 7 Oeste 12 Noroeste 0 997.6 1 77
2017-08-03 08:00:00 16.5 4 Sudoeste 8 Sudoeste 0 997.1 0.6 80
2017-08-03 07:00:00 16.5 3 Sudoeste 9 Sudoeste 0 996.9 0.1 79
2017-08-03 06:00:00 17 4 Sudoeste 11 Oeste 0 996.6 -0.3 73
2017-08-03 05:00:00 18.5 6 Oeste 19 Noroeste 0 996.5 -0.2 73
2017-08-03 04:00:00 19.1 9 Oeste 25 Oeste 0 996.8 0.3 70
2017-08-03 03:00:00 20.8 9 Oeste 19 Oeste 0 996.9 0.7 59
2017-08-03 02:00:00 21.5 9 Oeste 19 Oeste 0 996.7 0.9 46
2017-08-03 01:00:00 23.6 8 Oeste 18 Oeste 0 996.5 1.6 35
2017-08-03 00:00:00 24.6 13 Oeste 31 Noroeste 0 996.2 1.8 35
2017-08-02 23:00:00 26.5 16 Oeste 26 Noroeste 0 995.8 1.8 34
2017-08-02 22:00:00 29.5 10 Oeste 15 Oeste 0 994.9 0.9 23
2017-08-02 21:00:00 33.3 6 Oeste 15 Noroeste 0 994.4 0.2 18
2017-08-02 20:00:00 34.6 12 Noroeste 22 Noroeste 0 994 -0.5 16
2017-08-02 19:00:00 34.8 14 Noroeste 23 Noroeste 0 994 -1.1 16
2017-08-02 18:00:00 35.2 12 Noroeste 21 Noroeste 0 994.2 -1.6 16
2017-08-02 17:00:00 34.7 11 Noroeste 24 Noroeste 0 994.5 -1.7 17
2017-08-02 16:00:00 33.7 11 Noroeste 23 Noroeste 0 995.1 -1.6 19
2017-08-02 15:00:00 32.7 6 Oeste 15 Noroeste 0 995.8 -1.2 21
2017-08-02 14:00:00 30.7 6 Oeste 14 Oeste 0 996.2 -1 23
2017-08-02 13:00:00 28.2 6 Sudoeste 12 Oeste 0 996.7 -0.2 29
2017-08-02 12:00:00 24.7 7 Oeste 14 Noroeste 0 997 0.4 41
2017-08-02 11:00:00 21.3 9 Noroeste 14 Oeste 0 997.2 1 52
2017-08-02 10:00:00 18.8 4 Oeste 10 Noroeste 0 996.9 0.9 59
2017-08-02 09:00:00 16.5 5 Oeste 8 Oeste 0 996.6 0.7 69
2017-08-02 08:00:00 14.9 4 Sudoeste 9 Oeste 0 996.2 0.2 69
2017-08-02 07:00:00 15.2 4 Sudoeste 12 Oeste 0 996 -0.2 67
2017-08-02 06:00:00 15.9 8 Oeste 16 Oeste 0 995.9 -0.5 69
2017-08-02 05:00:00 16 11 Oeste 18 Oeste 0 996 -0.5 67
2017-08-02 04:00:00 17.8 8 Oeste 15 Oeste 0 996.2 -0.3 58
2017-08-02 03:00:00 18.6 9 Oeste 19 Oeste 0 996.4 0.4 55
2017-08-02 02:00:00 19.4 11 Oeste 24 Oeste 0 996.5 1 52
2017-08-02 01:00:00 20.5 12 Oeste 24 Noroeste 0 996.5 2 48
2017-08-02 00:00:00 22.2 16 Oeste 31 Oeste 0 996 2.4 42
2017-08-01 23:00:00 23.9 19 Oeste 34 Noroeste 0 995.5 2.6 36
2017-08-01 22:00:00 26.2 17 Oeste 27 Oeste 0 994.5 1.7 29
2017-08-01 21:00:00 28.5 15 Oeste 27 Oeste 0 993.6 0.6 26
2017-08-01 20:00:00 31.2 14 Oeste 25 Noroeste 0 992.9 0.1 20
2017-08-01 19:00:00 32.4 10 Oeste 25 Oeste 0 992.8 -0.4 17
2017-08-01 18:00:00 32.1 14 Oeste 30 Oeste 0 993 -0.3 18
2017-08-01 17:00:00 31.5 10 Noroeste 24 Noroeste 0 992.8 -0.8 21
2017-08-01 16:00:00 31.1 9 Oeste 28 Noroeste 0 993.2 -0.9 22
2017-08-01 15:00:00 29.2 9 Noroeste 22 Oeste 0 993.3 -0.9 26
2017-08-01 14:00:00 27.1 10 Oeste 22 Oeste 0 993.6 -0.1 32
2017-08-01 13:00:00 25.2 9 Oeste 16 Noroeste 0 994.1 0.3 38
2017-08-01 12:00:00 22.6 10 Noroeste 19 Noroeste 0 994.2 0.9 44
2017-08-01 11:00:00 20.8 7 Oeste 15 Noroeste 0 993.7 1.5 50
2017-08-01 10:00:00 17.6 8 Oeste 19 Oeste 0 993.8 1.8 63
2017-08-01 09:00:00 16.9 10 Oeste 18 Oeste 0 993.3 1.8 65
2017-08-01 08:00:00 15.7 8 Oeste 16 Oeste 0 992.2 0.8 66
2017-08-01 07:00:00 16.9 10 Oeste 21 Noroeste 0 992 0.8 59
2017-08-01 06:00:00 17.1 12 Oeste 23 Oeste 0 991.5 -0.1 57
2017-08-01 05:00:00 17.8 9 Oeste 23 Oeste 0 991.4 -0.1 56
2017-08-01 04:00:00 18.4 12 Oeste 24 Oeste 0 991.2 0 55
2017-08-01 03:00:00 19.2 10 Oeste 21 Oeste 0 991.6 0.6 54
2017-08-01 02:00:00 20.3 12 Oeste 23 Sudoeste 0 991.5 0.5 53
2017-08-01 01:00:00 21.2 8 Oeste 19 Oeste 0 991.2 1.1 53
2017-08-01 00:00:00 21.6 9 Oeste 18 Oeste 0 991 1.6 57
2017-07-31 23:00:00 21.5 8 Oeste 25 Oeste 0 991 2.3 61
2017-07-31 22:00:00 21.7 18 Oeste 31 Noroeste 0 990.1 1.4 56
2017-07-31 21:00:00 22.9 21 Oeste 39 Oeste 0 989.4 1.2 41
2017-07-31 20:00:00 25.1 24 Noroeste 46 Noroeste 0 988.7 0.3 34
2017-07-31 19:00:00 27.2 35 Oeste 50 Noroeste 0 988.7 -0.2 30
2017-07-31 18:00:00 31.9 14 Oeste 28 Noroeste 0 988.2 -1.3 18
2017-07-31 17:00:00 32.2 13 Noroeste 29 Oeste 0 988.4 -1.5 16
2017-07-31 16:00:00 32 15 Oeste 30 Oeste 0 988.9 -1.5 18
2017-07-31 15:00:00 30.4 9 Oeste 25 Noroeste 0 989.5 -1.3 24
2017-07-31 14:00:00 28.6 13 Oeste 24 Noroeste 0 989.9 -0.8 30
2017-07-31 13:00:00 25.8 10 Oeste 19 Noroeste 0 990.4 -0.2 38
2017-07-31 12:00:00 23.4 10 Oeste 19 Noroeste 0 990.8 0.4 45
2017-07-31 11:00:00 21 12 Oeste 20 Noroeste 0 990.7 0.4 52
2017-07-31 10:00:00 19.8 9 Oeste 18 Oeste 0 990.6 0.8 56
2017-07-31 09:00:00 18.3 4 Oeste 12 Oeste 0 990.4 0.6 61
2017-07-31 08:00:00 15.4 5 Oeste 11 Oeste 0 990.3 0.4 72
2017-07-31 07:00:00 15.6 4 Sudoeste 11 Sudoeste 0 989.8 -0.3 73
2017-07-31 06:00:00 16.3 4 Sudoeste 11 Oeste 0 989.8 -0.8 72
2017-07-31 05:00:00 17.1 8 Oeste 19 Oeste 0 989.9 -1.1 70
2017-07-31 04:00:00 18.4 9 Oeste 24 Oeste 0 990.1 -0.7 66
2017-07-31 03:00:00 19.3 12 Oeste 25 Oeste 0 990.6 -0.1 62
2017-07-31 02:00:00 20.4 12 Oeste 26 Oeste 0 991 1 58
2017-07-31 01:00:00 21.8 17 Oeste 28 Oeste 0 990.8 1.5 52
2017-07-31 00:00:00 23.8 14 Oeste 30 Noroeste 0 990.7 1.9 44
2017-07-30 23:00:00 26.3 18 Oeste 28 Oeste 0 990 1.3 35
2017-07-30 22:00:00 28.4 13 Oeste 25 Oeste 0 989.3 0.4 31
2017-07-30 21:00:00 30.9 17 Oeste 30 Oeste 0 988.8 -0.5 26
2017-07-30 20:00:00 33.9 19 Oeste 32 Noroeste 0 988.7 -1.2 22
2017-07-30 19:00:00 35.9 17 Oeste 28 Oeste 0 988.9 -1.6 19
2017-07-30 18:00:00 36.5 20 Oeste 36 Noroeste 0 989.3 -1.9 17
2017-07-30 17:00:00 36.8 14 Oeste 32 Noroeste 0 989.9 -2 17
2017-07-30 16:00:00 35.9 12 Oeste 30 Oeste 0 990.5 -2 20
2017-07-30 15:00:00 34.1 16 Noroeste 25 Noroeste 0 991.2 -1.7 21
2017-07-30 14:00:00 32.5 13 Noroeste 23 Noroeste 0 991.9 -0.9 27
2017-07-30 13:00:00 29.5 10 Noroeste 21 Noroeste 0 992.5 -0.7 37
2017-07-30 12:00:00 27.3 9 Noroeste 19 Noroeste 0 992.9 0 45
2017-07-30 11:00:00 24.8 8 Oeste 16 Oeste 0 992.8 -0.1 58
2017-07-30 10:00:00 22.1 8 Oeste 17 Noroeste 0 993.2 0.4 69
2017-07-30 09:00:00 19.8 8 Oeste 17 Oeste 0 992.9 0.1 80
2017-07-30 08:00:00 18.7 6 Oeste 15 Oeste 0 992.9 0 85
2017-07-30 07:00:00 18.6 9 Oeste 18 Oeste 0 992.8 -0.3 86
2017-07-30 06:00:00 19.2 8 Oeste 16 Oeste 0 992.8 -0.7 82
2017-07-30 05:00:00 20.2 10 Oeste 24 Oeste 0 992.9 -0.9 78
2017-07-30 04:00:00 21.1 7 Oeste 15 Noroeste 0 993.1 -0.8 74
2017-07-30 03:00:00 22.3 8 Oeste 18 Oeste 0 993.5 -0.4 70
2017-07-30 02:00:00 23.1 11 Oeste 21 Oeste 0 993.8 0.4 67
2017-07-30 01:00:00 24.4 14 Oeste 29 Oeste 0 993.9 1.4 62
2017-07-30 00:00:00 26.9 16 Oeste 39 Noroeste 0 993.9 1.7 48
2017-07-29 23:00:00 29.6 18 Oeste 28 Oeste 0 993.4 1.4 36
2017-07-29 22:00:00 31.5 11 Oeste 20 Noroeste 0 992.5 0.2 30
2017-07-29 21:00:00 35.4 10 Oeste 21 Noroeste 0 992.2 -0.6 22
2017-07-29 20:00:00 37.3 13 Oeste 25 Noroeste 0 992 -1.1 17
2017-07-29 19:00:00 38 15 Oeste 24 Noroeste 0 992.3 -1.5 17
2017-07-29 18:00:00 38.3 15 Oeste 28 Noroeste 0 992.8 -1.4 16
2017-07-29 17:00:00 38.2 15 Oeste 29 Oeste 0 993.1 -1.7 18
2017-07-29 16:00:00 36.9 10 Oeste 27 Noroeste 0 993.8 -1.4 24
2017-07-29 15:00:00 35.7 12 Oeste 26 Noroeste 0 994.2 -1 26
2017-07-29 14:00:00 34.1 10 Oeste 21 Noroeste 0 994.8 -1 32
2017-07-29 13:00:00 31.8 7 Sudoeste 13 Oeste 0 995.2 -0.5 38
2017-07-29 12:00:00 28.5 8 Oeste 17 Noroeste 0 995.2 -0.2 48
2017-07-29 11:00:00 26.2 9 Oeste 17 Oeste 0 995.8 0.9 55
2017-07-29 10:00:00 23.6 6 Oeste 16 Noroeste 0 995.7 1.1 65
2017-07-29 09:00:00 21.1 10 Oeste 15 Oeste 0 995.4 1 74
2017-07-29 08:00:00 20.1 5 Sudoeste 10 Sudoeste 0 994.9 0.6 75
2017-07-29 07:00:00 20 4 Oeste 10 Oeste 0 994.6 0.4 73
2017-07-29 06:00:00 20.3 5 Oeste 11 Oeste 0 994.4 -0.1 69
2017-07-29 05:00:00 21.2 3 Sudoeste 14 Oeste 0 994.3 -0.3 65
2017-07-29 04:00:00 22.5 7 Oeste 14 Oeste 0 994.2 -0.2 63
2017-07-29 03:00:00 23.1 9 Oeste 17 Noroeste 0 994.5 0.1 60
2017-07-29 02:00:00 23.6 10 Oeste 20 Oeste 0 994.6 0.4 58
2017-07-29 01:00:00 25.4 12 Oeste 23 Oeste 0 994.4 1.2 50
2017-07-29 00:00:00 26.2 14 Oeste 22 Oeste 0 994.4 1.7 47
2017-07-28 23:00:00 28.3 13 Oeste 23 Oeste 0 994.2 1.9 41
2017-07-28 22:00:00 30.7 13 Oeste 23 Oeste 0 993.2 1 31
2017-07-28 21:00:00 34.1 16 Oeste 26 Oeste 0 992.7 0.3 23
2017-07-28 20:00:00 37.2 17 Oeste 27 Noroeste 0 992.3 -0.6 19
2017-07-28 19:00:00 38.6 14 Oeste 29 Noroeste 0 992.2 -1.3 14
2017-07-28 18:00:00 38.9 11 Noroeste 28 Noroeste 0 992.4 -1.6 12
2017-07-28 17:00:00 38.7 12 Oeste 31 Noroeste 0 992.9 -1.7 15
2017-07-28 16:00:00 37.9 12 Oeste 22 Sudoeste 0 993.5 -1.4 18
2017-07-28 15:00:00 36 7 Oeste 19 Noroeste 0 994 -1.1 22
2017-07-28 14:00:00 34 6 Noroeste 15 Noroeste 0 994.6 -0.6 23
2017-07-28 13:00:00 31.1 7 Noroeste 15 Oeste 0 994.9 -0.4 36
2017-07-28 12:00:00 27.7 7 Oeste 15 Noroeste 0 995.1 0.1 46
2017-07-28 11:00:00 25 8 Oeste 16 Noroeste 0 995.2 0.5 52
2017-07-28 10:00:00 22.1 10 Oeste 17 Noroeste 0 995.3 1 68
2017-07-28 09:00:00 19.5 8 Noroeste 12 Noroeste 0 995 0.9 80
2017-07-28 08:00:00 18.1 4 Sudoeste 11 Oeste 0 994.7 0.6 83
2017-07-28 07:00:00 17.9 7 Oeste 12 Noroeste 0 994.3 0.4 87
2017-07-28 06:00:00 18.8 5 Oeste 12 Oeste 0 994.1 0.4 78
2017-07-28 05:00:00 19.6 4 Oeste 18 Noroeste 0 994.1 0.6 74
2017-07-28 04:00:00 20.1 12 Oeste 25 Oeste 0 993.9 0.6 74
2017-07-28 03:00:00 20.9 12 Oeste 20 Oeste 0 993.7 0.8 70
2017-07-28 02:00:00 23.4 10 Oeste 25 Oeste 0 993.5 1.3 60
2017-07-28 01:00:00 25.3 12 Oeste 20 Sudoeste 0 993.3 1.8 51
2017-07-28 00:00:00 26.7 12 Oeste 25 Noroeste 0 992.9 2.1 46
2017-07-27 23:00:00 28.8 13 Oeste 23 Oeste 0 992.2 1.8 36
2017-07-27 22:00:00 30.4 13 Oeste 19 Oeste 0 991.5 1 26
2017-07-27 21:00:00 33.8 14 Oeste 24 Oeste 0 990.8 -0.1 20
2017-07-27 20:00:00 36.8 17 Oeste 28 Oeste 0 990.4 -0.9 14
2017-07-27 19:00:00 37.8 18 Oeste 28 Oeste 0 990.5 -1.2 16
2017-07-27 18:00:00 38 17 Oeste 31 Noroeste 0 990.9 -1.3 16
2017-07-27 17:00:00 37.7 19 Oeste 31 Noroeste 0 991.3 -1.3 17
2017-07-27 16:00:00 36.8 18 Noroeste 28 Noroeste 0 991.7 -1.4 21
2017-07-27 15:00:00 35.6 18 Noroeste 29 Noroeste 0 992.2 -1.3 23
2017-07-27 14:00:00 34.1 14 Noroeste 26 Noroeste 0 992.6 -0.9 24
2017-07-27 13:00:00 32.1 10 Noroeste 17 Oeste 0 993.1 -0.5 27
2017-07-27 12:00:00 29.1 6 Oeste 16 Noroeste 0 993.5 0.3 34
2017-07-27 11:00:00 25.3 11 Noroeste 18 Noroeste 0 993.5 0.7 39
2017-07-27 10:00:00 23.3 12 Oeste 19 Oeste 0 993.6 1.1 42
2017-07-27 09:00:00 22.2 6 Oeste 11 Noroeste 0 993.2 1 42
2017-07-27 08:00:00 20.6 4 Oeste 12 Oeste 0 992.8 0.7 43
2017-07-27 07:00:00 21.2 6 Sudoeste 11 Sudoeste 0 992.5 0.4 41
2017-07-27 06:00:00 22 5 Sudoeste 11 Sudoeste 0 992.2 0.1 39
2017-07-27 05:00:00 23.3 5 Sudoeste 14 Oeste 0 992.1 0 37
2017-07-27 04:00:00 25.1 11 Oeste 19 Oeste 0 992.1 0 32
2017-07-27 03:00:00 25.8 10 Oeste 18 Oeste 0 992.1 0.2 31
2017-07-27 02:00:00 26.8 9 Oeste 17 Oeste 0 992.1 0.7 31
2017-07-27 01:00:00 27.1 8 Oeste 19 Oeste 0 992.1 1.3 32
2017-07-27 00:00:00 27.9 13 Oeste 22 Noroeste 0 991.9 2 35
2017-07-26 23:00:00 29.9 17 Oeste 27 Oeste 0 991.4 1.6 33
2017-07-26 22:00:00 32.9 14 Oeste 26 Oeste 0 990.8 0.8 30
2017-07-26 21:00:00 37.1 5 Sudoeste 14 Oeste 0 989.9 -0.5 19
2017-07-26 20:00:00 38.9 7 Oeste 14 Noroeste 0 989.8 -1.2 15
2017-07-26 19:00:00 38.7 6 Noroeste 17 Noroeste 0 990 -1.5 15
2017-07-26 18:00:00 38.7 6 Sur 18 Noroeste 0 990.4 -1.5 16
2017-07-26 17:00:00 38.1 5 Este 16 Nordeste 0 991 -1.6 16
2017-07-26 16:00:00 36.9 5 Norte 19 Este 0 991.5 -1.5 18
2017-07-26 15:00:00 36.4 6 Este 19 Nordeste 0 991.9 -1.2 19
2017-07-26 14:00:00 35.1 6 Nordeste 18 Este 0 992.6 -0.7 21
2017-07-26 13:00:00 33.2 7 Nordeste 17 Este 0 993 0 24
2017-07-26 12:00:00 31.3 8 Este 14 Nordeste 0 993.1 0.4 28
2017-07-26 11:00:00 28.8 10 Este 19 Este 0 993.3 1.1 27
2017-07-26 10:00:00 25.8 8 Este 12 Este 0 993 1.3 39
2017-07-26 09:00:00 23.4 6 Nordeste 8 Nordeste 0 992.7 1.2 38
2017-07-26 08:00:00 21.5 4 Noroeste 8 Noroeste 0 992.2 0.6 46
2017-07-26 07:00:00 22.3 7 Noroeste 10 Oeste 0 991.7 0.1 42
2017-07-26 06:00:00 22.7 8 Oeste 10 Noroeste 0 991.5 -0.2 41
2017-07-26 05:00:00 22.3 2 Norte 10 Oeste 0 991.6 -0.1 40
2017-07-26 04:00:00 25 5 Oeste 9 Sudoeste 0 991.6 0 34
2017-07-26 03:00:00 25.5 6 Sudoeste 9 Oeste 0 991.7 0.4 33
2017-07-26 02:00:00 26.2 7 Oeste 12 Oeste 0 991.7 0.8 33
2017-07-26 01:00:00 26.4 7 Oeste 14 Oeste 0 991.6 1.8 39
2017-07-26 00:00:00 27.6 8 Oeste 15 Oeste 0 991.3 1.8 38
2017-07-25 23:00:00 28.6 8 Oeste 27 Oeste 0 990.9 1.3 36
2017-07-25 22:00:00 32.5 7 Oeste 12 Oeste 0 989.8 0 23
2017-07-25 21:00:00 35 7 Norte 15 Nordeste 0 989.5 -0.5 20
2017-07-25 20:00:00 36.7 12 Norte 25 Nordeste 0 989.6 -0.8 16
2017-07-25 19:00:00 37.3 13 Norte 31 Norte 0 989.8 -1.3 17
2017-07-25 18:00:00 37.7 15 Noroeste 26 Norte 0 990 -1.9 17
2017-07-25 17:00:00 37.6 12 Noroeste 24 Noroeste 0 990.4 -2.3 19
2017-07-25 16:00:00 36.6 6 Norte 20 Este 0 991.1 -2.1 19
2017-07-25 15:00:00 35.8 6 Norte 19 Este 0 991.9 -1.8 22
2017-07-25 14:00:00 34.4 9 Nordeste 21 Este 0 992.7 -1.2 26
2017-07-25 13:00:00 32.4 10 Nordeste 18 Este 0 993.2 -0.8 30
2017-07-25 12:00:00 29.6 8 Nordeste 15 Este 0 993.7 -0.1 35
2017-07-25 11:00:00 26.2 7 Nordeste 14 Este 0 993.9 0.4 42
2017-07-25 10:00:00 23.3 7 Noroeste 13 Noroeste 0 994 0.6 52
2017-07-25 09:00:00 21.3 6 Oeste 14 Oeste 0 993.8 0.4 62
2017-07-25 08:00:00 18.8 4 Sudoeste 9 Oeste 0 993.5 -0.1 71
2017-07-25 07:00:00 17.8 5 Oeste 15 Oeste 0 993.4 -0.6 76
2017-07-25 06:00:00 19.4 8 Oeste 15 Oeste 0 993.4 -1 69
2017-07-25 05:00:00 20.1 9 Oeste 20 Oeste 0 993.6 -0.9 66
2017-07-25 04:00:00 20.9 10 Oeste 18 Oeste 0 994 -0.6 65
2017-07-25 03:00:00 21.4 10 Oeste 20 Oeste 0 994.4 -0.4 63
2017-07-25 02:00:00 23.2 9 Oeste 18 Noroeste 0 994.5 0 57
2017-07-25 01:00:00 23.8 12 Oeste 21 Oeste 0 994.6 0.6 56
2017-07-25 00:00:00 25.3 13 Oeste 24 Oeste 0 994.8 1.1 52
2017-07-24 23:00:00 26.7 15 Oeste 25 Noroeste 0 994.5 1 48
2017-07-24 22:00:00 29.6 15 Oeste 29 Oeste 0 994 0.2 40
2017-07-24 21:00:00 32.1 18 Oeste 30 Oeste 0 993.7 -0.4 31
2017-07-24 20:00:00 35.8 24 Noroeste 35 Noroeste 0 993.5 -1.3 17
2017-07-24 19:00:00 36.6 19 Noroeste 32 Noroeste 0 993.8 -1.5 17
2017-07-24 18:00:00 36.7 18 Noroeste 35 Noroeste 0 994.1 -1.9 18
2017-07-24 17:00:00 36.4 14 Noroeste 29 Noroeste 0 994.8 -1.9 20
2017-07-24 16:00:00 35.8 19 Noroeste 30 Noroeste 0 995.3 -1.9 20
2017-07-24 15:00:00 34.2 12 Noroeste 35 Noroeste 0 996 -1.5 23
2017-07-24 14:00:00 32.9 16 Oeste 27 Oeste 0 996.7 -1.2 28
2017-07-24 13:00:00 30.9 15 Oeste 28 Noroeste 0 997.2 -0.8 33
2017-07-24 12:00:00 28.7 10 Oeste 22 Oeste 0 997.5 -0.5 43
2017-07-24 11:00:00 25.7 11 Oeste 20 Oeste 0 997.9 0.2 52
2017-07-24 10:00:00 23.1 10 Oeste 22 Noroeste 0 998 0.4 62
2017-07-24 09:00:00 21.1 12 Oeste 19 Oeste 0 998 0.4 68
2017-07-24 08:00:00 19.1 9 Oeste 18 Oeste 0 997.7 0.3 76
2017-07-24 07:00:00 18.6 11 Oeste 19 Oeste 0 997.6 0.1 77
2017-07-24 06:00:00 19.5 11 Oeste 24 Oeste 0 997.6 -0.1 73
2017-07-24 05:00:00 20.7 9 Oeste 23 Oeste 0 997.4 -0.2 68
2017-07-24 04:00:00 21.8 10 Oeste 19 Oeste 0 997.5 0.1 62
2017-07-24 03:00:00 22.7 10 Oeste 21 Oeste 0 997.7 0.9 58
2017-07-24 02:00:00 23.3 10 Oeste 22 Oeste 0 997.6 1.5 55
2017-07-24 01:00:00 24.8 10 Oeste 22 Oeste 0 997.4 2.1 49
2017-07-24 00:00:00 26.1 14 Oeste 22 Oeste 0 996.8 2.1 43
2017-07-23 23:00:00 27.7 17 Oeste 30 Noroeste 0 996.1 1.7 38
2017-07-23 22:00:00 29.9 17 Oeste 32 Oeste 0 995.3 0.7 31
2017-07-23 21:00:00 33.3 21 Oeste 32 Oeste 0 994.7 -0.2 28
2017-07-23 20:00:00 35.6 8 Sudoeste 26 Oeste 0 994.4 -1.1 23
2017-07-23 19:00:00 35.9 14 Oeste 28 Noroeste 0 994.6 -1.4 22
2017-07-23 18:00:00 36.1 9 Oeste 22 Noroeste 0 994.9 -1.6 22
2017-07-23 17:00:00 35.9 9 Oeste 19 Oeste 0 995.5 -1.5 20
2017-07-23 16:00:00 35 6 Sudoeste 19 Noroeste 0 996 -1.4 17
2017-07-23 15:00:00 33.2 9 Oeste 19 Oeste 0 996.5 -0.7 23
2017-07-23 14:00:00 31.4 8 Oeste 23 Noroeste 0 997 -0.2 31
2017-07-23 13:00:00 29.3 8 Oeste 14 Oeste 0 997.4 0.3 37
2017-07-23 12:00:00 26.7 6 Oeste 15 Oeste 0 997.2 0.6 42
2017-07-23 11:00:00 23.1 11 Oeste 16 Noroeste 0 997.2 1 53
2017-07-23 10:00:00 20.4 9 Oeste 15 Noroeste 0 997.1 1.2 62
2017-07-23 09:00:00 19 6 Oeste 10 Oeste 0 996.6 1.2 65
2017-07-23 08:00:00 16.7 5 Sudoeste 10 Oeste 0 996.2 0.9 74
2017-07-23 07:00:00 16.3 8 Oeste 13 Oeste 0 995.9 0.6 75
2017-07-23 06:00:00 17 5 Oeste 13 Oeste 0 995.4 0 73
2017-07-23 05:00:00 17.6 8 Oeste 17 Oeste 0 995.3 -0.1 72
2017-07-23 04:00:00 18.3 10 Oeste 21 Oeste 0 995.3 0.2 69
2017-07-23 03:00:00 19.4 7 Oeste 19 Oeste 0 995.4 1 66
2017-07-23 02:00:00 20.5 13 Oeste 23 Oeste 0 995.4 1.9 63
2017-07-23 01:00:00 22.3 13 Oeste 28 Oeste 0 995.1 2.5 57
2017-07-23 00:00:00 23.6 17 Oeste 30 Oeste 0 994.4 2.3 53
2017-07-22 23:00:00 25.4 20 Oeste 31 Noroeste 0 993.5 1.6 46
2017-07-22 22:00:00 27.2 17 Oeste 24 Oeste 0 992.6 0.7 40
2017-07-22 21:00:00 31 9 Oeste 17 Oeste 0 992.1 -0.1 20
2017-07-22 20:00:00 33 10 Oeste 22 Noroeste 0 991.9 -0.7 15
2017-07-22 19:00:00 33.2 10 Oeste 22 Noroeste 0 991.9 -1.2 18
2017-07-22 18:00:00 33.2 11 Oeste 22 Noroeste 0 992.2 -1.3 21
2017-07-22 17:00:00 32.4 10 Oeste 19 Noroeste 0 992.6 -1.3 20
2017-07-22 16:00:00 31.8 6 Noroeste 17 Noroeste 0 993.1 -1 22
2017-07-22 15:00:00 29.9 8 Oeste 17 Oeste 0 993.5 -0.7 28
2017-07-22 14:00:00 28.5 11 Noroeste 21 Oeste 0 993.9 -0.3 33
2017-07-22 13:00:00 26.8 8 Noroeste 19 Noroeste 0 994.1 0 38
2017-07-22 12:00:00 24.7 10 Oeste 17 Noroeste 0 994.2 0.6 40
2017-07-22 11:00:00 22.1 4 Oeste 10 Oeste 0 994.2 0.8 51
2017-07-22 10:00:00 19 7 Oeste 17 Noroeste 0 994.1 1 64
2017-07-22 09:00:00 17.2 10 Oeste 14 Oeste 0 993.6 1 70
2017-07-22 08:00:00 15.3 4 Sudoeste 10 Sudoeste 0 993.4 1 79
2017-07-22 07:00:00 14.8 3 Sudoeste 11 Sudoeste 0 993.1 0.7 79
2017-07-22 06:00:00 15.7 5 Sudoeste 15 Oeste 0 992.6 0.2 73
2017-07-22 05:00:00 16.2 6 Sudoeste 12 Sudoeste 0 992.4 0 69
2017-07-22 04:00:00 17.3 5 Sudoeste 13 Oeste 0 992.4 -0.1 64
2017-07-22 03:00:00 18.4 8 Oeste 19 Oeste 0 992.4 0.2 60
2017-07-22 02:00:00 19 9 Oeste 22 Oeste 0 992.4 0.8 57
2017-07-22 01:00:00 19.9 15 Oeste 24 Oeste 0 992.5 1.7 55
2017-07-22 00:00:00 21.5 12 Oeste 24 Oeste 0 992.2 2 48